sensor_id;sensor_type;location;lat;lon;timestamp;temperature;humidity
79024;DHT22;68424;44.714;37.756;2023-03-20T00:00:38;25.71;38.68
79024;DHT22;68424;44.714;37.756;2023-03-20T00:01:37;25.73;38.64
79024;DHT22;68424;44.714;37.756;2023-03-20T00:02:39;25.76;38.60
79024;DHT22;68424;44.714;37.756;2023-03-20T00:03:40;25.78;38.52
79024;DHT22;68424;44.714;37.756;2023-03-20T00:04:41;25.75;38.60
79024;DHT22;68424;44.714;37.756;2023-03-20T00:05:43;25.73;38.67
79024;DHT22;68424;44.714;37.756;2023-03-20T00:06:44;25.75;38.60
79024;DHT22;68424;44.714;37.756;2023-03-20T00:07:46;25.78;38.59
79024;DHT22;68424;44.714;37.756;2023-03-20T00:08:50;25.75;38.62
79024;DHT22;68424;44.714;37.756;2023-03-20T00:09:52;25.73;38.65
79024;DHT22;68424;44.714;37.756;2023-03-20T00:10:54;25.72;38.56
79024;DHT22;68424;44.714;37.756;2023-03-20T00:11:56;25.72;38.61
79024;DHT22;68424;44.714;37.756;2023-03-20T00:12:57;25.71;38.64
79024;DHT22;68424;44.714;37.756;2023-03-20T00:14:00;25.76;38.62
79024;DHT22;68424;44.714;37.756;2023-03-20T00:15:04;25.72;38.56
79024;DHT22;68424;44.714;37.756;2023-03-20T00:16:06;25.72;38.68
79024;DHT22;68424;44.714;37.756;2023-03-20T00:17:10;25.71;38.66
79024;DHT22;68424;44.714;37.756;2023-03-20T00:18:20;25.71;38.66
79024;DHT22;68424;44.714;37.756;2023-03-20T00:19:24;25.72;38.61
79024;DHT22;68424;44.714;37.756;2023-03-20T00:20:26;25.71;38.59
79024;DHT22;68424;44.714;37.756;2023-03-20T00:21:28;25.72;38.61
79024;DHT22;68424;44.714;37.756;2023-03-20T00:22:30;25.73;38.59
79024;DHT22;68424;44.714;37.756;2023-03-20T00:23:32;25.73;38.56
79024;DHT22;68424;44.714;37.756;2023-03-20T00:24:33;25.71;38.61
79024;DHT22;68424;44.714;37.756;2023-03-20T00:25:36;25.68;38.62
79024;DHT22;68424;44.714;37.756;2023-03-20T00:26:39;25.68;38.67
79024;DHT22;68424;44.714;37.756;2023-03-20T00:27:41;25.68;38.63
79024;DHT22;68424;44.714;37.756;2023-03-20T00:28:46;25.69;38.62
79024;DHT22;68424;44.714;37.756;2023-03-20T00:29:47;25.69;38.59
79024;DHT22;68424;44.714;37.756;2023-03-20T00:30:49;25.71;38.61
79024;DHT22;68424;44.714;37.756;2023-03-20T00:31:50;25.71;38.54
79024;DHT22;68424;44.714;37.756;2023-03-20T00:32:52;25.68;38.63
79024;DHT22;68424;44.714;37.756;2023-03-20T00:33:55;25.68;38.65
79024;DHT22;68424;44.714;37.756;2023-03-20T00:34:57;25.65;38.60
79024;DHT22;68424;44.714;37.756;2023-03-20T00:35:58;25.63;38.68
79024;DHT22;68424;44.714;37.756;2023-03-20T00:36:59;25.63;38.66
79024;DHT22;68424;44.714;37.756;2023-03-20T00:38:00;25.62;38.74
79024;DHT22;68424;44.714;37.756;2023-03-20T00:39:02;25.65;38.74
79024;DHT22;68424;44.714;37.756;2023-03-20T00:40:04;25.66;38.62
79024;DHT22;68424;44.714;37.756;2023-03-20T00:42:31;25.69;38.57
79024;DHT22;68424;44.714;37.756;2023-03-20T00:43:32;25.69;38.50
79024;DHT22;68424;44.714;37.756;2023-03-20T00:44:44;25.68;38.58
79024;DHT22;68424;44.714;37.756;2023-03-20T00:45:48;25.71;38.53
79024;DHT22;68424;44.714;37.756;2023-03-20T00:46:54;25.68;38.54
79024;DHT22;68424;44.714;37.756;2023-03-20T00:47:57;25.66;38.57
79024;DHT22;68424;44.714;37.756;2023-03-20T00:48:58;25.68;38.60
79024;DHT22;68424;44.714;37.756;2023-03-20T00:49:59;25.69;38.52
79024;DHT22;68424;44.714;37.756;2023-03-20T00:51:01;25.68;38.57
79024;DHT22;68424;44.714;37.756;2023-03-20T00:52:04;25.69;38.50
79024;DHT22;68424;44.714;37.756;2023-03-20T00:53:05;25.65;38.57
79024;DHT22;68424;44.714;37.756;2023-03-20T00:54:15;25.66;38.51
79024;DHT22;68424;44.714;37.756;2023-03-20T00:55:18;25.66;38.56
79024;DHT22;68424;44.714;37.756;2023-03-20T00:56:30;25.65;38.55
79024;DHT22;68424;44.714;37.756;2023-03-20T00:57:39;25.66;38.58
79024;DHT22;68424;44.714;37.756;2023-03-20T00:58:40;25.63;38.56
79024;DHT22;68424;44.714;37.756;2023-03-20T01:01:20;25.66;38.57
79024;DHT22;68424;44.714;37.756;2023-03-20T01:02:25;25.63;38.62
79024;DHT22;68424;44.714;37.756;2023-03-20T01:03:28;25.61;38.69
79024;DHT22;68424;44.714;37.756;2023-03-20T01:04:38;25.59;38.59
79024;DHT22;68424;44.714;37.756;2023-03-20T01:05:41;25.59;38.72
79024;DHT22;68424;44.714;37.756;2023-03-20T01:06:43;25.55;38.75
79024;DHT22;68424;44.714;37.756;2023-03-20T01:07:45;25.59;38.74
79024;DHT22;68424;44.714;37.756;2023-03-20T01:08:46;25.57;38.73
79024;DHT22;68424;44.714;37.756;2023-03-20T01:09:48;25.55;38.75
79024;DHT22;68424;44.714;37.756;2023-03-20T01:10:52;25.55;38.78
79024;DHT22;68424;44.714;37.756;2023-03-20T01:12:00;25.58;38.70
79024;DHT22;68424;44.714;37.756;2023-03-20T01:13:02;25.57;38.74
79024;DHT22;68424;44.714;37.756;2023-03-20T01:14:04;25.54;38.73
79024;DHT22;68424;44.714;37.756;2023-03-20T01:15:21;25.52;38.83
79024;DHT22;68424;44.714;37.756;2023-03-20T01:16:24;25.57;38.78
79024;DHT22;68424;44.714;37.756;2023-03-20T01:17:26;25.55;38.68
79024;DHT22;68424;44.714;37.756;2023-03-20T01:18:28;25.59;38.66
79024;DHT22;68424;44.714;37.756;2023-03-20T01:19:29;25.59;38.62
79024;DHT22;68424;44.714;37.756;2023-03-20T01:20:30;25.57;38.67
79024;DHT22;68424;44.714;37.756;2023-03-20T01:21:32;25.59;38.62
79024;DHT22;68424;44.714;37.756;2023-03-20T01:22:33;25.57;38.65
79024;DHT22;68424;44.714;37.756;2023-03-20T01:23:34;25.55;38.73
79024;DHT22;68424;44.714;37.756;2023-03-20T01:24:35;25.51;38.81
79024;DHT22;68424;44.714;37.756;2023-03-20T01:25:37;25.54;38.75
79024;DHT22;68424;44.714;37.756;2023-03-20T01:26:40;25.58;38.72
79024;DHT22;68424;44.714;37.756;2023-03-20T01:27:50;25.57;38.67
79024;DHT22;68424;44.714;37.756;2023-03-20T01:28:52;25.55;38.72
79024;DHT22;68424;44.714;37.756;2023-03-20T01:29:54;25.59;38.66
79024;DHT22;68424;44.714;37.756;2023-03-20T01:30:55;25.58;38.63
79024;DHT22;68424;44.714;37.756;2023-03-20T01:31:56;25.61;38.68
79024;DHT22;68424;44.714;37.756;2023-03-20T01:33:00;25.59;38.63
79024;DHT22;68424;44.714;37.756;2023-03-20T01:34:03;25.58;38.68
79024;DHT22;68424;44.714;37.756;2023-03-20T01:35:07;25.54;38.72
79024;DHT22;68424;44.714;37.756;2023-03-20T01:36:10;25.55;38.66
79024;DHT22;68424;44.714;37.756;2023-03-20T01:37:16;25.58;38.71
79024;DHT22;68424;44.714;37.756;2023-03-20T01:38:23;25.59;38.65
79024;DHT22;68424;44.714;37.756;2023-03-20T01:39:34;25.63;38.62
79024;DHT22;68424;44.714;37.756;2023-03-20T01:41:39;25.65;38.56
79024;DHT22;68424;44.714;37.756;2023-03-20T01:42:41;25.66;38.52
79024;DHT22;68424;44.714;37.756;2023-03-20T01:43:44;25.68;38.53
79024;DHT22;68424;44.714;37.756;2023-03-20T01:44:46;25.66;38.46
79024;DHT22;68424;44.714;37.756;2023-03-20T01:47:20;25.63;38.64
79024;DHT22;68424;44.714;37.756;2023-03-20T01:48:31;25.66;38.54
79024;DHT22;68424;44.714;37.756;2023-03-20T01:51:03;25.66;38.53
79024;DHT22;68424;44.714;37.756;2023-03-20T01:52:04;25.61;38.62
79024;DHT22;68424;44.714;37.756;2023-03-20T01:53:17;25.59;38.66
79024;DHT22;68424;44.714;37.756;2023-03-20T01:55:36;25.59;38.63
79024;DHT22;68424;44.714;37.756;2023-03-20T01:56:45;25.57;38.70
79024;DHT22;68424;44.714;37.756;2023-03-20T01:57:50;25.59;38.59
79024;DHT22;68424;44.714;37.756;2023-03-20T01:58:57;25.58;38.67
79024;DHT22;68424;44.714;37.756;2023-03-20T02:00:04;25.54;38.73
79024;DHT22;68424;44.714;37.756;2023-03-20T02:01:16;25.57;38.72
79024;DHT22;68424;44.714;37.756;2023-03-20T02:02:22;25.52;38.75
79024;DHT22;68424;44.714;37.756;2023-03-20T02:03:25;25.55;38.68
79024;DHT22;68424;44.714;37.756;2023-03-20T02:04:54;25.61;38.66
79024;DHT22;68424;44.714;37.756;2023-03-20T02:05:56;25.62;38.58
79024;DHT22;68424;44.714;37.756;2023-03-20T02:07:02;25.58;38.59
79024;DHT22;68424;44.714;37.756;2023-03-20T02:09:16;25.55;38.65
79024;DHT22;68424;44.714;37.756;2023-03-20T02:10:19;25.55;38.68
79024;DHT22;68424;44.714;37.756;2023-03-20T02:11:33;25.55;38.68
79024;DHT22;68424;44.714;37.756;2023-03-20T02:12:37;25.55;38.67
79024;DHT22;68424;44.714;37.756;2023-03-20T02:13:40;25.54;38.76
79024;DHT22;68424;44.714;37.756;2023-03-20T02:14:42;25.55;38.72
79024;DHT22;68424;44.714;37.756;2023-03-20T02:16:07;25.55;38.67
79024;DHT22;68424;44.714;37.756;2023-03-20T02:17:29;25.57;38.65
79024;DHT22;68424;44.714;37.756;2023-03-20T02:18:36;25.57;38.68
79024;DHT22;68424;44.714;37.756;2023-03-20T02:22:25;25.55;38.61
79024;DHT22;68424;44.714;37.756;2023-03-20T02:34:53;25.48;38.85
79024;DHT22;68424;44.714;37.756;2023-03-20T02:36:09;25.51;38.74
79024;DHT22;68424;44.714;37.756;2023-03-20T02:39:01;25.51;38.62
79024;DHT22;68424;44.714;37.756;2023-03-20T02:43:52;25.42;38.94
79024;DHT22;68424;44.714;37.756;2023-03-20T02:45:06;25.41;38.90
79024;DHT22;68424;44.714;37.756;2023-03-20T02:47:26;25.42;38.81
79024;DHT22;68424;44.714;37.756;2023-03-20T02:48:45;25.42;38.83
79024;DHT22;68424;44.714;37.756;2023-03-20T02:50:07;25.46;38.75
79024;DHT22;68424;44.714;37.756;2023-03-20T02:51:53;25.48;38.71
79024;DHT22;68424;44.714;37.756;2023-03-20T02:54:32;25.46;38.77
79024;DHT22;68424;44.714;37.756;2023-03-20T02:57:11;25.45;38.85
79024;DHT22;68424;44.714;37.756;2023-03-20T02:58:32;25.44;38.79
79024;DHT22;68424;44.714;37.756;2023-03-20T03:02:11;25.37;38.90
79024;DHT22;68424;44.714;37.756;2023-03-20T03:03:23;25.39;38.91
79024;DHT22;68424;44.714;37.756;2023-03-20T03:04:32;25.39;38.88
79024;DHT22;68424;44.714;37.756;2023-03-20T03:05:49;25.37;38.85
79024;DHT22;68424;44.714;37.756;2023-03-20T03:06:53;25.35;38.96
79024;DHT22;68424;44.714;37.756;2023-03-20T03:07:55;25.35;38.93
79024;DHT22;68424;44.714;37.756;2023-03-20T03:09:03;25.41;38.83
79024;DHT22;68424;44.714;37.756;2023-03-20T03:10:18;25.38;38.84
79024;DHT22;68424;44.714;37.756;2023-03-20T03:11:20;25.35;39.00
79024;DHT22;68424;44.714;37.756;2023-03-20T03:12:29;25.38;38.98
79024;DHT22;68424;44.714;37.756;2023-03-20T03:13:37;25.41;38.91
79024;DHT22;68424;44.714;37.756;2023-03-20T03:14:47;25.39;38.89
79024;DHT22;68424;44.714;37.756;2023-03-20T03:15:53;25.39;38.80
79024;DHT22;68424;44.714;37.756;2023-03-20T03:16:56;25.39;38.92
79024;DHT22;68424;44.714;37.756;2023-03-20T03:18:02;25.39;38.91
79024;DHT22;68424;44.714;37.756;2023-03-20T03:19:13;25.44;38.94
79024;DHT22;68424;44.714;37.756;2023-03-20T03:20:24;25.44;38.92
79024;DHT22;68424;44.714;37.756;2023-03-20T03:21:28;25.44;39.00
79024;DHT22;68424;44.714;37.756;2023-03-20T03:22:32;25.45;38.93
79024;DHT22;68424;44.714;37.756;2023-03-20T03:23:41;25.45;39.13
79024;DHT22;68424;44.714;37.756;2023-03-20T03:24:47;25.46;38.79
79024;DHT22;68424;44.714;37.756;2023-03-20T03:25:49;25.44;38.86
79024;DHT22;68424;44.714;37.756;2023-03-20T03:26:52;25.44;38.78
79024;DHT22;68424;44.714;37.756;2023-03-20T03:28:04;25.42;38.96
79024;DHT22;68424;44.714;37.756;2023-03-20T03:29:15;25.45;38.97
79024;DHT22;68424;44.714;37.756;2023-03-20T03:30:23;25.45;38.93
79024;DHT22;68424;44.714;37.756;2023-03-20T03:31:26;25.46;38.97
79024;DHT22;68424;44.714;37.756;2023-03-20T03:32:33;25.46;39.01
79024;DHT22;68424;44.714;37.756;2023-03-20T03:33:41;25.52;38.89
79024;DHT22;68424;44.714;37.756;2023-03-20T03:34:45;25.51;38.94
79024;DHT22;68424;44.714;37.756;2023-03-20T03:35:47;25.49;38.93
79024;DHT22;68424;44.714;37.756;2023-03-20T03:37:07;25.49;38.91
79024;DHT22;68424;44.714;37.756;2023-03-20T03:43:10;25.49;38.92
79024;DHT22;68424;44.714;37.756;2023-03-20T03:44:26;25.46;39.08
79024;DHT22;68424;44.714;37.756;2023-03-20T03:45:34;25.41;39.23
79024;DHT22;68424;44.714;37.756;2023-03-20T03:46:55;25.35;39.26
79024;DHT22;68424;44.714;37.756;2023-03-20T03:48:06;25.37;39.36
79024;DHT22;68424;44.714;37.756;2023-03-20T03:49:15;25.35;39.31
79024;DHT22;68424;44.714;37.756;2023-03-20T03:50:28;25.31;39.38
79024;DHT22;68424;44.714;37.756;2023-03-20T03:51:34;25.27;39.45
79024;DHT22;68424;44.714;37.756;2023-03-20T03:52:44;25.27;39.42
79024;DHT22;68424;44.714;37.756;2023-03-20T03:53:53;25.26;39.46
79024;DHT22;68424;44.714;37.756;2023-03-20T03:55:00;25.31;39.60
79024;DHT22;68424;44.714;37.756;2023-03-20T03:56:08;25.38;39.56
79024;DHT22;68424;44.714;37.756;2023-03-20T03:57:13;25.41;39.37
79024;DHT22;68424;44.714;37.756;2023-03-20T03:58:25;25.34;39.56
79024;DHT22;68424;44.714;37.756;2023-03-20T03:59:39;25.34;39.59
79024;DHT22;68424;44.714;37.756;2023-03-20T04:00:43;25.38;39.55
79024;DHT22;68424;44.714;37.756;2023-03-20T04:01:49;25.45;39.42
79024;DHT22;68424;44.714;37.756;2023-03-20T04:02:56;25.52;39.32
79024;DHT22;68424;44.714;37.756;2023-03-20T04:04:00;25.51;39.25
79024;DHT22;68424;44.714;37.756;2023-03-20T04:05:04;25.51;39.26
79024;DHT22;68424;44.714;37.756;2023-03-20T04:06:09;25.51;39.24
79024;DHT22;68424;44.714;37.756;2023-03-20T04:07:15;25.51;39.16
79024;DHT22;68424;44.714;37.756;2023-03-20T04:08:17;25.54;39.14
79024;DHT22;68424;44.714;37.756;2023-03-20T04:09:18;25.58;39.08
79024;DHT22;68424;44.714;37.756;2023-03-20T04:10:20;25.58;39.03
79024;DHT22;68424;44.714;37.756;2023-03-20T04:11:23;25.58;39.08
79024;DHT22;68424;44.714;37.756;2023-03-20T04:12:32;25.62;39.12
79024;DHT22;68424;44.714;37.756;2023-03-20T04:13:34;25.65;38.94
79024;DHT22;68424;44.714;37.756;2023-03-20T04:14:36;25.62;39.16
79024;DHT22;68424;44.714;37.756;2023-03-20T04:15:37;25.61;39.11
79024;DHT22;68424;44.714;37.756;2023-03-20T04:16:40;25.58;39.29
79024;DHT22;68424;44.714;37.756;2023-03-20T04:17:43;25.61;39.21
79024;DHT22;68424;44.714;37.756;2023-03-20T04:18:45;25.62;39.30
79024;DHT22;68424;44.714;37.756;2023-03-20T04:19:48;25.66;39.14
79024;DHT22;68424;44.714;37.756;2023-03-20T04:20:49;25.72;39.06
79024;DHT22;68424;44.714;37.756;2023-03-20T04:21:52;25.72;39.05
79024;DHT22;68424;44.714;37.756;2023-03-20T04:22:55;25.75;39.18
79024;DHT22;68424;44.714;37.756;2023-03-20T04:23:56;25.72;39.33
79024;DHT22;68424;44.714;37.756;2023-03-20T04:24:57;25.69;39.53
79024;DHT22;68424;44.714;37.756;2023-03-20T04:26:02;25.69;39.39
79024;DHT22;68424;44.714;37.756;2023-03-20T04:27:07;25.71;39.30
79024;DHT22;68424;44.714;37.756;2023-03-20T04:28:08;25.73;39.22
79024;DHT22;68424;44.714;37.756;2023-03-20T04:29:33;25.76;39.14
79024;DHT22;68424;44.714;37.756;2023-03-20T04:31:08;25.80;39.21
79024;DHT22;68424;44.714;37.756;2023-03-20T04:32:48;25.82;39.08
79024;DHT22;68424;44.714;37.756;2023-03-20T04:34:09;25.80;38.85
79024;DHT22;68424;44.714;37.756;2023-03-20T04:35:14;25.80;38.80
79024;DHT22;68424;44.714;37.756;2023-03-20T04:36:27;25.71;38.86
79024;DHT22;68424;44.714;37.756;2023-03-20T04:37:30;25.66;38.91
79024;DHT22;68424;44.714;37.756;2023-03-20T04:38:39;25.62;38.96
79024;DHT22;68424;44.714;37.756;2023-03-20T04:39:40;25.62;38.96
79024;DHT22;68424;44.714;37.756;2023-03-20T04:40:44;25.66;38.88
79024;DHT22;68424;44.714;37.756;2023-03-20T04:41:46;25.71;38.86
79024;DHT22;68424;44.714;37.756;2023-03-20T04:42:47;25.69;38.81
79024;DHT22;68424;44.714;37.756;2023-03-20T04:43:49;25.68;38.83
79024;DHT22;68424;44.714;37.756;2023-03-20T04:44:50;25.68;38.83
79024;DHT22;68424;44.714;37.756;2023-03-20T04:45:51;25.66;38.88
79024;DHT22;68424;44.714;37.756;2023-03-20T04:46:52;25.65;38.88
79024;DHT22;68424;44.714;37.756;2023-03-20T04:47:54;25.63;38.86
79024;DHT22;68424;44.714;37.756;2023-03-20T04:48:57;25.65;38.81
79024;DHT22;68424;44.714;37.756;2023-03-20T04:50:02;25.61;38.96
79024;DHT22;68424;44.714;37.756;2023-03-20T04:51:05;25.62;38.88
79024;DHT22;68424;44.714;37.756;2023-03-20T04:52:27;25.57;38.95
79024;DHT22;68424;44.714;37.756;2023-03-20T04:53:28;25.59;38.96
79024;DHT22;68424;44.714;37.756;2023-03-20T04:54:29;25.62;38.89
79024;DHT22;68424;44.714;37.756;2023-03-20T04:55:31;25.63;38.83
79024;DHT22;68424;44.714;37.756;2023-03-20T04:56:32;25.62;38.87
79024;DHT22;68424;44.714;37.756;2023-03-20T04:57:45;25.63;38.80
79024;DHT22;68424;44.714;37.756;2023-03-20T04:58:47;25.65;38.74
79024;DHT22;68424;44.714;37.756;2023-03-20T04:59:49;25.63;38.79
79024;DHT22;68424;44.714;37.756;2023-03-20T05:00:51;25.66;38.75
79024;DHT22;68424;44.714;37.756;2023-03-20T05:01:52;25.63;38.83
79024;DHT22;68424;44.714;37.756;2023-03-20T05:02:56;25.59;38.80
79024;DHT22;68424;44.714;37.756;2023-03-20T05:03:57;25.63;38.81
79024;DHT22;68424;44.714;37.756;2023-03-20T05:05:04;25.61;38.76
79024;DHT22;68424;44.714;37.756;2023-03-20T05:06:09;25.65;38.72
79024;DHT22;68424;44.714;37.756;2023-03-20T05:07:14;25.66;38.65
79024;DHT22;68424;44.714;37.756;2023-03-20T05:08:36;25.65;38.67
79024;DHT22;68424;44.714;37.756;2023-03-20T05:09:37;25.63;38.71
79024;DHT22;68424;44.714;37.756;2023-03-20T05:10:40;25.61;38.67
79024;DHT22;68424;44.714;37.756;2023-03-20T05:12:16;25.68;38.57
79024;DHT22;68424;44.714;37.756;2023-03-20T05:13:32;25.63;38.50
79024;DHT22;68424;44.714;37.756;2023-03-20T05:14:48;25.68;38.51
79024;DHT22;68424;44.714;37.756;2023-03-20T05:16:15;25.66;38.46
79024;DHT22;68424;44.714;37.756;2023-03-20T05:17:32;25.63;38.54
79024;DHT22;68424;44.714;37.756;2023-03-20T05:18:39;25.62;38.52
79024;DHT22;68424;44.714;37.756;2023-03-20T05:20:12;25.62;38.50
79024;DHT22;68424;44.714;37.756;2023-03-20T05:21:49;25.63;38.47
79024;DHT22;68424;44.714;37.756;2023-03-20T05:23:06;25.59;38.56
79024;DHT22;68424;44.714;37.756;2023-03-20T05:24:22;25.65;38.45
79024;DHT22;68424;44.714;37.756;2023-03-20T05:25:32;25.63;38.48
79024;DHT22;68424;44.714;37.756;2023-03-20T05:26:56;25.69;38.40
79024;DHT22;68424;44.714;37.756;2023-03-20T05:28:16;25.62;38.47
79024;DHT22;68424;44.714;37.756;2023-03-20T05:29:30;25.59;38.47
79024;DHT22;68424;44.714;37.756;2023-03-20T05:30:50;25.57;38.59
79024;DHT22;68424;44.714;37.756;2023-03-20T05:32:29;25.61;38.52
79024;DHT22;68424;44.714;37.756;2023-03-20T05:33:43;25.63;38.48
79024;DHT22;68424;44.714;37.756;2023-03-20T05:34:59;25.61;38.41
79024;DHT22;68424;44.714;37.756;2023-03-20T05:36:17;25.61;38.44
79024;DHT22;68424;44.714;37.756;2023-03-20T05:37:41;25.63;38.42
79024;DHT22;68424;44.714;37.756;2023-03-20T05:39:15;25.65;38.24
79024;DHT22;68424;44.714;37.756;2023-03-20T05:40:25;25.61;38.39
79024;DHT22;68424;44.714;37.756;2023-03-20T05:41:45;25.62;38.36
79024;DHT22;68424;44.714;37.756;2023-03-20T05:43:09;25.59;38.37
79024;DHT22;68424;44.714;37.756;2023-03-20T05:44:28;25.58;38.37
79024;DHT22;68424;44.714;37.756;2023-03-20T05:45:45;25.61;38.37
79024;DHT22;68424;44.714;37.756;2023-03-20T05:47:13;25.59;38.37
79024;DHT22;68424;44.714;37.756;2023-03-20T05:48:37;25.61;38.34
79024;DHT22;68424;44.714;37.756;2023-03-20T05:50:02;25.57;38.41
79024;DHT22;68424;44.714;37.756;2023-03-20T05:51:22;25.55;38.39
79024;DHT22;68424;44.714;37.756;2023-03-20T05:52:47;25.55;38.39
79024;DHT22;68424;44.714;37.756;2023-03-20T05:54:15;25.55;38.34
79024;DHT22;68424;44.714;37.756;2023-03-20T05:55:37;25.51;38.37
79024;DHT22;68424;44.714;37.756;2023-03-20T05:57:04;25.51;38.42
79024;DHT22;68424;44.714;37.756;2023-03-20T05:58:28;25.55;38.38
79024;DHT22;68424;44.714;37.756;2023-03-20T05:59:38;25.51;38.38
79024;DHT22;68424;44.714;37.756;2023-03-20T06:00:59;25.58;38.39
79024;DHT22;68424;44.714;37.756;2023-03-20T06:02:32;25.61;38.29
79024;DHT22;68424;44.714;37.756;2023-03-20T06:03:42;25.55;38.30
79024;DHT22;68424;44.714;37.756;2023-03-20T06:04:48;25.58;38.27
79024;DHT22;68424;44.714;37.756;2023-03-20T06:06:14;25.58;38.27
79024;DHT22;68424;44.714;37.756;2023-03-20T06:07:16;25.57;38.31
79024;DHT22;68424;44.714;37.756;2023-03-20T06:08:22;25.54;38.38
79024;DHT22;68424;44.714;37.756;2023-03-20T06:09:24;25.52;38.39
79024;DHT22;68424;44.714;37.756;2023-03-20T06:10:25;25.51;38.42
79024;DHT22;68424;44.714;37.756;2023-03-20T06:11:27;25.49;38.44
79024;DHT22;68424;44.714;37.756;2023-03-20T06:12:29;25.48;38.40
79024;DHT22;68424;44.714;37.756;2023-03-20T06:13:30;25.48;38.45
79024;DHT22;68424;44.714;37.756;2023-03-20T06:14:34;25.48;38.43
79024;DHT22;68424;44.714;37.756;2023-03-20T06:15:40;25.51;38.40
79024;DHT22;68424;44.714;37.756;2023-03-20T06:16:48;25.46;38.47
79024;DHT22;68424;44.714;37.756;2023-03-20T06:17:50;25.46;38.43
79024;DHT22;68424;44.714;37.756;2023-03-20T06:18:51;25.49;38.46
79024;DHT22;68424;44.714;37.756;2023-03-20T06:19:53;25.51;38.39
79024;DHT22;68424;44.714;37.756;2023-03-20T06:20:56;25.46;38.40
79024;DHT22;68424;44.714;37.756;2023-03-20T06:21:59;25.45;38.48
79024;DHT22;68424;44.714;37.756;2023-03-20T06:23:00;25.46;38.48
79024;DHT22;68424;44.714;37.756;2023-03-20T06:24:01;25.46;38.44
79024;DHT22;68424;44.714;37.756;2023-03-20T06:25:04;25.51;38.40
79024;DHT22;68424;44.714;37.756;2023-03-20T06:26:10;25.52;38.33
79024;DHT22;68424;44.714;37.756;2023-03-20T06:27:27;25.57;38.30
79024;DHT22;68424;44.714;37.756;2023-03-20T06:28:28;25.55;38.28
79024;DHT22;68424;44.714;37.756;2023-03-20T06:29:38;25.57;38.23
79024;DHT22;68424;44.714;37.756;2023-03-20T06:30:52;25.59;38.22
79024;DHT22;68424;44.714;37.756;2023-03-20T06:31:55;25.63;38.10
79024;DHT22;68424;44.714;37.756;2023-03-20T06:33:01;25.62;38.15
79024;DHT22;68424;44.714;37.756;2023-03-20T06:34:11;25.59;38.10
79024;DHT22;68424;44.714;37.756;2023-03-20T06:35:17;25.62;38.10
79024;DHT22;68424;44.714;37.756;2023-03-20T06:36:21;25.61;38.21
79024;DHT22;68424;44.714;37.756;2023-03-20T06:37:27;25.59;38.21
79024;DHT22;68424;44.714;37.756;2023-03-20T06:38:35;25.58;38.16
79024;DHT22;68424;44.714;37.756;2023-03-20T06:39:43;25.59;38.15
79024;DHT22;68424;44.714;37.756;2023-03-20T06:40:47;25.58;38.14
79024;DHT22;68424;44.714;37.756;2023-03-20T06:41:51;25.62;38.13
79024;DHT22;68424;44.714;37.756;2023-03-20T06:42:56;25.63;38.13
79024;DHT22;68424;44.714;37.756;2023-03-20T06:44:05;25.68;38.13
79024;DHT22;68424;44.714;37.756;2023-03-20T06:45:26;25.65;38.05
79024;DHT22;68424;44.714;37.756;2023-03-20T06:46:33;25.62;38.03
79024;DHT22;68424;44.714;37.756;2023-03-20T06:47:34;25.57;38.23
79024;DHT22;68424;44.714;37.756;2023-03-20T06:48:36;25.58;38.22
79024;DHT22;68424;44.714;37.756;2023-03-20T06:49:40;25.54;38.22
79024;DHT22;68424;44.714;37.756;2023-03-20T06:50:42;25.54;38.24
79024;DHT22;68424;44.714;37.756;2023-03-20T06:51:44;25.54;38.30
79024;DHT22;68424;44.714;37.756;2023-03-20T06:52:50;25.52;38.28
79024;DHT22;68424;44.714;37.756;2023-03-20T06:54:13;25.55;38.27
79024;DHT22;68424;44.714;37.756;2023-03-20T06:55:16;25.57;38.19
79024;DHT22;68424;44.714;37.756;2023-03-20T06:56:17;25.58;38.16
79024;DHT22;68424;44.714;37.756;2023-03-20T06:57:19;25.58;38.19
79024;DHT22;68424;44.714;37.756;2023-03-20T06:58:21;25.55;38.22
79024;DHT22;68424;44.714;37.756;2023-03-20T06:59:24;25.57;38.22
79024;DHT22;68424;44.714;37.756;2023-03-20T07:00:30;25.59;38.16
79024;DHT22;68424;44.714;37.756;2023-03-20T07:01:35;25.55;38.22
79024;DHT22;68424;44.714;37.756;2023-03-20T07:02:36;25.54;38.23
79024;DHT22;68424;44.714;37.756;2023-03-20T07:03:38;25.55;38.23
79024;DHT22;68424;44.714;37.756;2023-03-20T07:04:40;25.57;38.24
79024;DHT22;68424;44.714;37.756;2023-03-20T07:05:42;25.57;38.27
79024;DHT22;68424;44.714;37.756;2023-03-20T07:06:45;25.61;38.18
79024;DHT22;68424;44.714;37.756;2023-03-20T07:07:47;25.58;38.24
79024;DHT22;68424;44.714;37.756;2023-03-20T07:08:48;25.59;38.18
79024;DHT22;68424;44.714;37.756;2023-03-20T07:09:51;25.63;38.09
79024;DHT22;68424;44.714;37.756;2023-03-20T07:10:52;25.58;38.18
79024;DHT22;68424;44.714;37.756;2023-03-20T07:11:55;25.59;38.19
79024;DHT22;68424;44.714;37.756;2023-03-20T07:12:57;25.61;38.17
79024;DHT22;68424;44.714;37.756;2023-03-20T07:13:59;25.59;38.16
79024;DHT22;68424;44.714;37.756;2023-03-20T07:15:13;25.61;38.20
79024;DHT22;68424;44.714;37.756;2023-03-20T07:16:14;25.58;38.16
79024;DHT22;68424;44.714;37.756;2023-03-20T07:17:16;25.57;38.27
79024;DHT22;68424;44.714;37.756;2023-03-20T07:18:17;25.55;38.25
79024;DHT22;68424;44.714;37.756;2023-03-20T07:19:19;25.57;38.33
79024;DHT22;68424;44.714;37.756;2023-03-20T07:20:24;25.55;38.30
79024;DHT22;68424;44.714;37.756;2023-03-20T07:21:25;25.58;38.19
79024;DHT22;68424;44.714;37.756;2023-03-20T07:22:28;25.57;38.22
79024;DHT22;68424;44.714;37.756;2023-03-20T07:23:46;25.57;38.30
79024;DHT22;68424;44.714;37.756;2023-03-20T07:24:48;25.54;38.31
79024;DHT22;68424;44.714;37.756;2023-03-20T07:25:50;25.55;38.32
79024;DHT22;68424;44.714;37.756;2023-03-20T07:26:53;25.55;38.28
79024;DHT22;68424;44.714;37.756;2023-03-20T07:27:55;25.55;38.34
79024;DHT22;68424;44.714;37.756;2023-03-20T07:28:59;25.52;38.40
79024;DHT22;68424;44.714;37.756;2023-03-20T07:30:03;25.54;38.30
79024;DHT22;68424;44.714;37.756;2023-03-20T07:31:05;25.54;38.23
79024;DHT22;68424;44.714;37.756;2023-03-20T07:32:07;25.51;38.35
79024;DHT22;68424;44.714;37.756;2023-03-20T07:33:12;25.51;38.41
79024;DHT22;68424;44.714;37.756;2023-03-20T07:34:14;25.48;38.48
79024;DHT22;68424;44.714;37.756;2023-03-20T07:35:16;25.46;38.41
79024;DHT22;68424;44.714;37.756;2023-03-20T07:36:18;25.44;38.49
79024;DHT22;68424;44.714;37.756;2023-03-20T07:37:20;25.49;38.42
79024;DHT22;68424;44.714;37.756;2023-03-20T07:38:31;25.51;38.43